sensor_id;sensor_type;location;lat;lon;timestamp;temperature;humidity
18218;DHT22;9234;49.344;11.120;2022-10-13T00:01:21;8.70;99.90
18218;DHT22;9234;49.344;11.120;2022-10-13T00:03:50;8.70;99.90
18218;DHT22;9234;49.344;11.120;2022-10-13T00:06:20;8.70;99.90
18218;DHT22;9234;49.344;11.120;2022-10-13T00:08:51;8.60;99.90
18218;DHT22;9234;49.344;11.120;2022-10-13T00:11:23;8.60;99.90
18218;DHT22;9234;49.344;11.120;2022-10-13T00:13:56;8.60;99.90
18218;DHT22;9234;49.344;11.120;2022-10-13T00:16:27;8.60;99.90
18218;DHT22;9234;49.344;11.120;2022-10-13T00:18:57;8.60;99.90
18218;DHT22;9234;49.344;11.120;2022-10-13T00:21:26;8.60;99.90
18218;DHT22;9234;49.344;11.120;2022-10-13T00:23:56;8.50;99.90
18218;DHT22;9234;49.344;11.120;2022-10-13T00:26:26;8.50;99.90
18218;DHT22;9234;49.344;11.120;2022-10-13T00:28:54;8.50;99.90
18218;DHT22;9234;49.344;11.120;2022-10-13T00:31:25;8.40;99.90
18218;DHT22;9234;49.344;11.120;2022-10-13T00:33:54;8.40;99.90
18218;DHT22;9234;49.344;11.120;2022-10-13T00:36:24;8.40;99.90
18218;DHT22;9234;49.344;11.120;2022-10-13T00:38:53;8.40;99.90
18218;DHT22;9234;49.344;11.120;2022-10-13T00:41:23;8.30;99.90
18218;DHT22;9234;49.344;11.120;2022-10-13T00:43:57;8.20;99.90
18218;DHT22;9234;49.344;11.120;2022-10-13T00:46:28;8.20;99.90
18218;DHT22;9234;49.344;11.120;2022-10-13T00:49:01;8.20;99.90
18218;DHT22;9234;49.344;11.120;2022-10-13T00:51:37;8.10;99.90
18218;DHT22;9234;49.344;11.120;2022-10-13T00:54:08;8.10;99.90
18218;DHT22;9234;49.344;11.120;2022-10-13T00:56:42;8.00;99.90
18218;DHT22;9234;49.344;11.120;2022-10-13T00:59:16;8.00;99.90
18218;DHT22;9234;49.344;11.120;2022-10-13T01:01:52;8.10;99.90
18218;DHT22;9234;49.344;11.120;2022-10-13T01:04:24;7.90;99.90
18218;DHT22;9234;49.344;11.120;2022-10-13T01:06:57;7.90;99.90
18218;DHT22;9234;49.344;11.120;2022-10-13T01:09:25;7.90;99.90
18218;DHT22;9234;49.344;11.120;2022-10-13T01:12:07;7.90;99.90
18218;DHT22;9234;49.344;11.120;2022-10-13T01:14:46;7.90;99.90
18218;DHT22;9234;49.344;11.120;2022-10-13T01:17:27;7.80;99.90
18218;DHT22;9234;49.344;11.120;2022-10-13T01:20:31;7.90;99.90
18218;DHT22;9234;49.344;11.120;2022-10-13T01:23:40;7.90;99.90
18218;DHT22;9234;49.344;11.120;2022-10-13T01:30:10;7.80;99.90
18218;DHT22;9234;49.344;11.120;2022-10-13T01:36:03;7.90;99.90
18218;DHT22;9234;49.344;11.120;2022-10-13T01:38:43;7.90;99.90
18218;DHT22;9234;49.344;11.120;2022-10-13T01:41:18;7.90;99.90
18218;DHT22;9234;49.344;11.120;2022-10-13T01:43:56;7.90;99.90
18218;DHT22;9234;49.344;11.120;2022-10-13T01:46:34;7.90;99.90
18218;DHT22;9234;49.344;11.120;2022-10-13T01:49:06;8.30;99.90
18218;DHT22;9234;49.344;11.120;2022-10-13T01:51:38;8.00;99.90
18218;DHT22;9234;49.344;11.120;2022-10-13T01:54:07;8.00;99.90
18218;DHT22;9234;49.344;11.120;2022-10-13T01:56:35;8.00;99.90
18218;DHT22;9234;49.344;11.120;2022-10-13T01:59:06;8.00;99.90
18218;DHT22;9234;49.344;11.120;2022-10-13T02:01:50;8.10;99.90
18218;DHT22;9234;49.344;11.120;2022-10-13T02:04:38;8.10;99.90
18218;DHT22;9234;49.344;11.120;2022-10-13T02:07:18;8.10;99.90
18218;DHT22;9234;49.344;11.120;2022-10-13T02:09:56;8.10;99.90
18218;DHT22;9234;49.344;11.120;2022-10-13T02:12:31;8.10;99.90
18218;DHT22;9234;49.344;11.120;2022-10-13T02:15:05;8.10;99.90
18218;DHT22;9234;49.344;11.120;2022-10-13T02:17:39;8.20;99.90
18218;DHT22;9234;49.344;11.120;2022-10-13T02:20:09;8.20;99.90
18218;DHT22;9234;49.344;11.120;2022-10-13T02:22:43;8.20;99.90
18218;DHT22;9234;49.344;11.120;2022-10-13T02:25:13;8.20;99.90
18218;DHT22;9234;49.344;11.120;2022-10-13T02:27:41;8.30;99.90
18218;DHT22;9234;49.344;11.120;2022-10-13T02:30:19;8.30;99.90
18218;DHT22;9234;49.344;11.120;2022-10-13T02:32:51;8.30;99.90
18218;DHT22;9234;49.344;11.120;2022-10-13T02:35:19;8.30;99.90
18218;DHT22;9234;49.344;11.120;2022-10-13T02:37:47;8.30;99.90
18218;DHT22;9234;49.344;11.120;2022-10-13T02:40:16;8.30;99.90
18218;DHT22;9234;49.344;11.120;2022-10-13T02:42:44;8.30;99.90
18218;DHT22;9234;49.344;11.120;2022-10-13T02:45:12;8.30;99.90
18218;DHT22;9234;49.344;11.120;2022-10-13T02:47:40;8.40;99.90
18218;DHT22;9234;49.344;11.120;2022-10-13T02:50:10;8.90;99.90
18218;DHT22;9234;49.344;11.120;2022-10-13T02:52:38;8.40;99.90
18218;DHT22;9234;49.344;11.120;2022-10-13T02:55:07;8.50;99.90
18218;DHT22;9234;49.344;11.120;2022-10-13T02:57:36;8.50;99.90
18218;DHT22;9234;49.344;11.120;2022-10-13T03:00:06;8.60;99.90
18218;DHT22;9234;49.344;11.120;2022-10-13T03:02:35;8.60;99.90
18218;DHT22;9234;49.344;11.120;2022-10-13T03:05:03;8.60;99.90
18218;DHT22;9234;49.344;11.120;2022-10-13T03:07:33;8.60;99.90
18218;DHT22;9234;49.344;11.120;2022-10-13T03:10:02;8.70;99.90
18218;DHT22;9234;49.344;11.120;2022-10-13T03:12:31;8.70;99.90
18218;DHT22;9234;49.344;11.120;2022-10-13T03:14:59;8.70;99.90
18218;DHT22;9234;49.344;11.120;2022-10-13T03:17:27;8.70;99.90
18218;DHT22;9234;49.344;11.120;2022-10-13T03:19:56;8.80;99.90
18218;DHT22;9234;49.344;11.120;2022-10-13T03:22:24;8.80;99.90
18218;DHT22;9234;49.344;11.120;2022-10-13T03:24:54;8.80;99.90
18218;DHT22;9234;49.344;11.120;2022-10-13T03:27:22;8.90;99.90
18218;DHT22;9234;49.344;11.120;2022-10-13T03:29:50;8.90;99.90
18218;DHT22;9234;49.344;11.120;2022-10-13T03:32:18;8.90;99.90
18218;DHT22;9234;49.344;11.120;2022-10-13T03:34:47;8.90;99.90
18218;DHT22;9234;49.344;11.120;2022-10-13T03:37:16;8.90;99.90
18218;DHT22;9234;49.344;11.120;2022-10-13T03:39:44;9.00;99.90
18218;DHT22;9234;49.344;11.120;2022-10-13T03:42:14;9.00;99.90
18218;DHT22;9234;49.344;11.120;2022-10-13T03:44:47;9.10;99.90
18218;DHT22;9234;49.344;11.120;2022-10-13T03:47:22;9.10;99.90
18218;DHT22;9234;49.344;11.120;2022-10-13T03:49:50;9.10;99.90
18218;DHT22;9234;49.344;11.120;2022-10-13T03:52:19;9.10;99.90
18218;DHT22;9234;49.344;11.120;2022-10-13T03:54:48;9.10;99.90
18218;DHT22;9234;49.344;11.120;2022-10-13T03:57:18;9.20;99.90
18218;DHT22;9234;49.344;11.120;2022-10-13T03:59:46;9.20;99.90
18218;DHT22;9234;49.344;11.120;2022-10-13T04:02:14;9.20;99.90
18218;DHT22;9234;49.344;11.120;2022-10-13T04:04:42;9.30;99.90
18218;DHT22;9234;49.344;11.120;2022-10-13T04:07:10;9.30;99.90
18218;DHT22;9234;49.344;11.120;2022-10-13T04:09:38;9.30;99.90
18218;DHT22;9234;49.344;11.120;2022-10-13T04:12:07;9.30;99.90
18218;DHT22;9234;49.344;11.120;2022-10-13T04:14:36;9.30;99.90
18218;DHT22;9234;49.344;11.120;2022-10-13T04:17:07;9.30;99.90
18218;DHT22;9234;49.344;11.120;2022-10-13T04:19:35;9.40;99.90
18218;DHT22;9234;49.344;11.120;2022-10-13T04:22:04;9.40;99.90
18218;DHT22;9234;49.344;11.120;2022-10-13T04:24:33;9.40;99.90
18218;DHT22;9234;49.344;11.120;2022-10-13T04:27:01;9.50;99.90
18218;DHT22;9234;49.344;11.120;2022-10-13T04:29:29;9.40;99.90
18218;DHT22;9234;49.344;11.120;2022-10-13T04:32:01;9.50;99.90
18218;DHT22;9234;49.344;11.120;2022-10-13T04:34:29;9.50;99.90
18218;DHT22;9234;49.344;11.120;2022-10-13T04:36:57;9.50;99.90
18218;DHT22;9234;49.344;11.120;2022-10-13T04:39:25;9.50;99.90
18218;DHT22;9234;49.344;11.120;2022-10-13T04:41:54;9.50;99.90
18218;DHT22;9234;49.344;11.120;2022-10-13T04:44:22;9.40;99.90
18218;DHT22;9234;49.344;11.120;2022-10-13T04:46:50;9.40;99.90
18218;DHT22;9234;49.344;11.120;2022-10-13T04:49:20;9.40;99.90
18218;DHT22;9234;49.344;11.120;2022-10-13T04:51:48;9.40;99.90
18218;DHT22;9234;49.344;11.120;2022-10-13T04:54:17;9.40;99.90
18218;DHT22;9234;49.344;11.120;2022-10-13T04:56:45;9.40;99.90
18218;DHT22;9234;49.344;11.120;2022-10-13T04:59:14;9.40;99.90
18218;DHT22;9234;49.344;11.120;2022-10-13T05:01:42;9.30;99.90
18218;DHT22;9234;49.344;11.120;2022-10-13T05:04:12;9.30;99.90
18218;DHT22;9234;49.344;11.120;2022-10-13T05:06:41;9.30;99.90
18218;DHT22;9234;49.344;11.120;2022-10-13T05:09:30;9.30;99.90
18218;DHT22;9234;49.344;11.120;2022-10-13T05:11:58;9.30;99.90
18218;DHT22;9234;49.344;11.120;2022-10-13T05:14:26;9.40;99.90
18218;DHT22;9234;49.344;11.120;2022-10-13T05:16:54;9.40;99.90
18218;DHT22;9234;49.344;11.120;2022-10-13T05:19:22;9.40;99.90
18218;DHT22;9234;49.344;11.120;2022-10-13T05:21:52;9.40;99.90
18218;DHT22;9234;49.344;11.120;2022-10-13T05:24:20;9.50;99.90
18218;DHT22;9234;49.344;11.120;2022-10-13T05:26:57;9.50;99.90
18218;DHT22;9234;49.344;11.120;2022-10-13T05:29:25;9.60;99.90
18218;DHT22;9234;49.344;11.120;2022-10-13T05:31:53;9.60;99.90
18218;DHT22;9234;49.344;11.120;2022-10-13T05:34:21;9.70;99.90
18218;DHT22;9234;49.344;11.120;2022-10-13T05:36:49;9.70;99.90
18218;DHT22;9234;49.344;11.120;2022-10-13T05:39:19;9.80;99.90
18218;DHT22;9234;49.344;11.120;2022-10-13T05:41:47;9.90;99.90
18218;DHT22;9234;49.344;11.120;2022-10-13T05:44:20;9.90;99.90
18218;DHT22;9234;49.344;11.120;2022-10-13T05:46:54;10.00;99.90
18218;DHT22;9234;49.344;11.120;2022-10-13T05:49:22;10.00;99.90
18218;DHT22;9234;49.344;11.120;2022-10-13T05:51:53;10.10;99.90
18218;DHT22;9234;49.344;11.120;2022-10-13T05:54:27;10.20;99.90
18218;DHT22;9234;49.344;11.120;2022-10-13T05:57:03;10.20;99.90
18218;DHT22;9234;49.344;11.120;2022-10-13T05:59:37;10.30;99.90
18218;DHT22;9234;49.344;11.120;2022-10-13T06:02:11;10.30;99.90
18218;DHT22;9234;49.344;11.120;2022-10-13T06:04:44;10.40;99.90
18218;DHT22;9234;49.344;11.120;2022-10-13T06:07:14;10.40;99.90
18218;DHT22;9234;49.344;11.120;2022-10-13T06:09:43;10.50;99.90
18218;DHT22;9234;49.344;11.120;2022-10-13T06:12:11;10.50;99.90
18218;DHT22;9234;49.344;11.120;2022-10-13T06:14:40;10.50;99.90
18218;DHT22;9234;49.344;11.120;2022-10-13T06:17:10;10.60;99.90
18218;DHT22;9234;49.344;11.120;2022-10-13T06:19:41;11.00;99.90
18218;DHT22;9234;49.344;11.120;2022-10-13T06:22:11;10.70;99.90
18218;DHT22;9234;49.344;11.120;2022-10-13T06:24:39;10.70;99.90
18218;DHT22;9234;49.344;11.120;2022-10-13T06:27:09;10.70;99.90
18218;DHT22;9234;49.344;11.120;2022-10-13T06:29:37;10.80;99.90
18218;DHT22;9234;49.344;11.120;2022-10-13T06:32:06;10.80;99.90
18218;DHT22;9234;49.344;11.120;2022-10-13T06:34:34;10.80;99.90
18218;DHT22;9234;49.344;11.120;2022-10-13T06:37:03;10.90;99.90
18218;DHT22;9234;49.344;11.120;2022-10-13T06:39:32;10.90;99.90
18218;DHT22;9234;49.344;11.120;2022-10-13T06:42:02;10.90;99.90
18218;DHT22;9234;49.344;11.120;2022-10-13T06:44:37;11.00;99.90
18218;DHT22;9234;49.344;11.120;2022-10-13T06:47:06;11.00;99.90
18218;DHT22;9234;49.344;11.120;2022-10-13T06:49:34;11.00;99.90
18218;DHT22;9234;49.344;11.120;2022-10-13T06:52:03;11.00;99.90
18218;DHT22;9234;49.344;11.120;2022-10-13T06:54:31;11.00;99.90
18218;DHT22;9234;49.344;11.120;2022-10-13T06:57:00;11.10;99.90
18218;DHT22;9234;49.344;11.120;2022-10-13T06:59:28;11.10;99.90
18218;DHT22;9234;49.344;11.120;2022-10-13T07:01:57;11.20;99.90
18218;DHT22;9234;49.344;11.120;2022-10-13T07:04:26;11.20;99.90
18218;DHT22;9234;49.344;11.120;2022-10-13T07:06:56;11.30;99.90
18218;DHT22;9234;49.344;11.120;2022-10-13T07:09:24;11.30;99.90
18218;DHT22;9234;49.344;11.120;2022-10-13T07:11:53;11.30;99.90
18218;DHT22;9234;49.344;11.120;2022-10-13T07:14:21;11.40;99.90
18218;DHT22;9234;49.344;11.120;2022-10-13T07:16:50;11.50;99.90
18218;DHT22;9234;49.344;11.120;2022-10-13T07:19:19;11.50;99.90
18218;DHT22;9234;49.344;11.120;2022-10-13T07:21:47;11.60;99.90
18218;DHT22;9234;49.344;11.120;2022-10-13T07:24:15;11.70;99.90
18218;DHT22;9234;49.344;11.120;2022-10-13T07:26:44;11.70;99.90
18218;DHT22;9234;49.344;11.120;2022-10-13T07:29:12;11.80;99.90
18218;DHT22;9234;49.344;11.120;2022-10-13T07:31:41;12.00;99.90
18218;DHT22;9234;49.344;11.120;2022-10-13T07:34:10;11.90;99.90
18218;DHT22;9234;49.344;11.120;2022-10-13T07:36:40;11.90;99.90
18218;DHT22;9234;49.344;11.120;2022-10-13T07:39:08;12.00;99.90
18218;DHT22;9234;49.344;11.120;2022-10-13T07:41:36;12.00;99.90
18218;DHT22;9234;49.344;11.120;2022-10-13T07:44:04;12.00;99.90
18218;DHT22;9234;49.344;11.120;2022-10-13T07:46:33;12.10;99.90
18218;DHT22;9234;49.344;11.120;2022-10-13T07:49:01;12.10;99.90
18218;DHT22;9234;49.344;11.120;2022-10-13T07:51:29;12.20;99.90
18218;DHT22;9234;49.344;11.120;2022-10-13T07:53:58;12.20;99.90
18218;DHT22;9234;49.344;11.120;2022-10-13T07:56:27;12.20;99.90
18218;DHT22;9234;49.344;11.120;2022-10-13T07:58:55;12.20;99.90
18218;DHT22;9234;49.344;11.120;2022-10-13T08:01:23;12.20;99.90
18218;DHT22;9234;49.344;11.120;2022-10-13T08:03:53;12.20;99.90
18218;DHT22;9234;49.344;11.120;2022-10-13T08:06:22;12.20;99.90
18218;DHT22;9234;49.344;11.120;2022-10-13T08:08:53;12.30;99.90
18218;DHT22;9234;49.344;11.120;2022-10-13T08:11:25;12.40;99.90
18218;DHT22;9234;49.344;11.120;2022-10-13T08:13:53;12.50;99.90
18218;DHT22;9234;49.344;11.120;2022-10-13T08:16:26;12.60;99.90
18218;DHT22;9234;49.344;11.120;2022-10-13T08:18:56;12.70;99.90
18218;DHT22;9234;49.344;11.120;2022-10-13T08:21:26;12.70;99.90
18218;DHT22;9234;49.344;11.120;2022-10-13T08:24:16;12.80;99.90
18218;DHT22;9234;49.344;11.120;2022-10-13T08:26:46;12.90;99.90
18218;DHT22;9234;49.344;11.120;2022-10-13T08:29:15;13.00;99.90
18218;DHT22;9234;49.344;11.120;2022-10-13T08:31:50;13.00;99.90
18218;DHT22;9234;49.344;11.120;2022-10-13T08:34:19;13.10;99.90
18218;DHT22;9234;49.344;11.120;2022-10-13T08:36:48;13.20;99.90
18218;DHT22;9234;49.344;11.120;2022-10-13T08:39:19;13.20;99.90
18218;DHT22;9234;49.344;11.120;2022-10-13T08:41:50;13.20;99.90
18218;DHT22;9234;49.344;11.120;2022-10-13T08:44:23;13.30;99.90
18218;DHT22;9234;49.344;11.120;2022-10-13T08:47:19;13.30;99.90
18218;DHT22;9234;49.344;11.120;2022-10-13T08:49:56;13.30;99.90
18218;DHT22;9234;49.344;11.120;2022-10-13T08:52:28;13.30;99.90
18218;DHT22;9234;49.344;11.120;2022-10-13T08:55:16;13.40;99.90
18218;DHT22;9234;49.344;11.120;2022-10-13T08:57:51;13.40;99.90
18218;DHT22;9234;49.344;11.120;2022-10-13T09:00:25;13.40;99.90
18218;DHT22;9234;49.344;11.120;2022-10-13T09:03:01;13.40;99.90
18218;DHT22;9234;49.344;11.120;2022-10-13T09:05:54;13.50;99.90
18218;DHT22;9234;49.344;11.120;2022-10-13T09:08:37;13.50;99.90
18218;DHT22;9234;49.344;11.120;2022-10-13T09:11:09;13.60;99.90
18218;DHT22;9234;49.344;11.120;2022-10-13T09:13:40;13.70;99.90
18218;DHT22;9234;49.344;11.120;2022-10-13T09:16:08;13.70;99.90
18218;DHT22;9234;49.344;11.120;2022-10-13T09:18:37;13.70;99.90
18218;DHT22;9234;49.344;11.120;2022-10-13T09:21:19;13.70;99.90
18218;DHT22;9234;49.344;11.120;2022-10-13T09:23:51;13.80;99.90
18218;DHT22;9234;49.344;11.120;2022-10-13T09:26:22;13.80;99.90
18218;DHT22;9234;49.344;11.120;2022-10-13T09:28:52;13.80;99.90
18218;DHT22;9234;49.344;11.120;2022-10-13T09:31:24;13.80;99.90
18218;DHT22;9234;49.344;11.120;2022-10-13T09:33:58;13.90;99.90
18218;DHT22;9234;49.344;11.120;2022-10-13T09:36:28;14.00;99.90
18218;DHT22;9234;49.344;11.120;2022-10-13T09:39:06;14.10;99.90
18218;DHT22;9234;49.344;11.120;2022-10-13T09:41:39;14.10;99.90
18218;DHT22;9234;49.344;11.120;2022-10-13T09:44:15;14.20;99.90
18218;DHT22;9234;49.344;11.120;2022-10-13T09:46:50;14.30;99.90
18218;DHT22;9234;49.344;11.120;2022-10-13T09:49:31;14.20;99.90
18218;DHT22;9234;49.344;11.120;2022-10-13T09:52:14;14.50;99.90
18218;DHT22;9234;49.344;11.120;2022-10-13T09:54:47;14.50;99.90
18218;DHT22;9234;49.344;11.120;2022-10-13T09:57:21;14.50;99.90
18218;DHT22;9234;49.344;11.120;2022-10-13T10:00:09;14.60;99.90
18218;DHT22;9234;49.344;11.120;2022-10-13T10:02:46;14.60;99.90
18218;DHT22;9234;49.344;11.120;2022-10-13T10:05:22;14.70;99.90
18218;DHT22;9234;49.344;11.120;2022-10-13T10:07:59;14.80;99.90
18218;DHT22;9234;49.344;11.120;2022-10-13T10:10:34;14.90;99.90
18218;DHT22;9234;49.344;11.120;2022-10-13T10:13:09;15.00;99.90
18218;DHT22;9234;49.344;11.120;2022-10-13T10:15:49;15.10;99.90
18218;DHT22;9234;49.344;11.120;2022-10-13T10:18:30;15.10;99.90
18218;DHT22;9234;49.344;11.120;2022-10-13T10:21:07;15.30;99.90
18218;DHT22;9234;49.344;11.120;2022-10-13T10:23:45;15.30;99.90
18218;DHT22;9234;49.344;11.120;2022-10-13T10:26:21;15.40;99.90
18218;DHT22;9234;49.344;11.120;2022-10-13T10:29:26;15.40;99.90
18218;DHT22;9234;49.344;11.120;2022-10-13T10:32:20;15.40;99.90
18218;DHT22;9234;49.344;11.120;2022-10-13T10:35:00;15.40;99.90
18218;DHT22;9234;49.344;11.120;2022-10-13T10:37:57;15.40;99.90
18218;DHT22;9234;49.344;11.120;2022-10-13T10:40:37;15.30;99.90
18218;DHT22;9234;49.344;11.120;2022-10-13T10:43:37;15.30;99.90
18218;DHT22;9234;49.344;11.120;2022-10-13T10:46:14;15.30;99.90
18218;DHT22;9234;49.344;11.120;2022-10-13T10:48:47;15.30;99.90
18218;DHT22;9234;49.344;11.120;2022-10-13T10:51:23;15.30;99.90
18218;DHT22;9234;49.344;11.120;2022-10-13T10:54:02;15.40;99.90
18218;DHT22;9234;49.344;11.120;2022-10-13T10:56:42;15.50;99.90
18218;DHT22;9234;49.344;11.120;2022-10-13T10:59:27;15.50;99.90
18218;DHT22;9234;49.344;11.120;2022-10-13T11:02:18;15.70;99.90
18218;DHT22;9234;49.344;11.120;2022-10-13T11:05:03;15.60;99.90
18218;DHT22;9234;49.344;11.120;2022-10-13T11:07:55;15.70;99.90
18218;DHT22;9234;49.344;11.120;2022-10-13T11:10:26;15.90;99.90
18218;DHT22;9234;49.344;11.120;2022-10-13T11:13:19;16.00;99.90
18218;DHT22;9234;49.344;11.120;2022-10-13T11:15:48;16.10;99.90
18218;DHT22;9234;49.344;11.120;2022-10-13T11:18:57;16.10;99.90
18218;DHT22;9234;49.344;11.120;2022-10-13T11:24:55;16.30;99.90
18218;DHT22;9234;49.344;11.120;2022-10-13T11:27:42;16.40;99.90
18218;DHT22;9234;49.344;11.120;2022-10-13T11:30:40;16.50;99.90
18218;DHT22;9234;49.344;11.120;2022-10-13T11:33:50;16.60;99.90
18218;DHT22;9234;49.344;11.120;2022-10-13T11:36:53;16.80;99.90
18218;DHT22;9234;49.344;11.120;2022-10-13T11:39:52;16.90;99.90
18218;DHT22;9234;49.344;11.120;2022-10-13T11:43:09;17.00;99.90
18218;DHT22;9234;49.344;11.120;2022-10-13T11:52:30;17.60;99.90
18218;DHT22;9234;49.344;11.120;2022-10-13T11:55:14;17.70;99.90
18218;DHT22;9234;49.344;11.120;2022-10-13T11:57:46;17.70;99.90
18218;DHT22;9234;49.344;11.120;2022-10-13T12:00:17;17.80;99.90
18218;DHT22;9234;49.344;11.120;2022-10-13T12:02:47;17.90;99.90
18218;DHT22;9234;49.344;11.120;2022-10-13T12:05:23;17.90;99.90
18218;DHT22;9234;49.344;11.120;2022-10-13T12:07:55;17.90;99.90
18218;DHT22;9234;49.344;11.120;2022-10-13T12:10:30;17.90;99.90
18218;DHT22;9234;49.344;11.120;2022-10-13T12:13:02;17.80;99.90
18218;DHT22;9234;49.344;11.120;2022-10-13T12:15:33;17.80;99.90
18218;DHT22;9234;49.344;11.120;2022-10-13T12:18:19;17.80;99.90
18218;DHT22;9234;49.344;11.120;2022-10-13T12:20:54;17.80;99.90
18218;DHT22;9234;49.344;11.120;2022-10-13T12:23:24;17.80;99.90
18218;DHT22;9234;49.344;11.120;2022-10-13T12:25:55;17.80;99.90
18218;DHT22;9234;49.344;11.120;2022-10-13T12:28:25;17.80;99.90
18218;DHT22;9234;49.344;11.120;2022-10-13T12:30:58;17.80;99.90
18218;DHT22;9234;49.344;11.120;2022-10-13T12:33:29;17.80;99.90
18218;DHT22;9234;49.344;11.120;2022-10-13T12:36:11;17.90;99.90
18218;DHT22;9234;49.344;11.120;2022-10-13T12:38:44;17.90;99.90
18218;DHT22;9234;49.344;11.120;2022-10-13T12:41:21;17.90;99.90
18218;DHT22;9234;49.344;11.120;2022-10-13T12:43:52;17.90;99.90
18218;DHT22;9234;49.344;11.120;2022-10-13T12:46:38;17.90;99.90
18218;DHT22;9234;49.344;11.120;2022-10-13T12:49:13;17.90;99.90
18218;DHT22;9234;49.344;11.120;2022-10-13T12:51:46;17.90;99.90
18218;DHT22;9234;49.344;11.120;2022-10-13T12:54:21;17.90;99.90
18218;DHT22;9234;49.344;11.120;2022-10-13T12:56:56;17.90;99.90
18218;DHT22;9234;49.344;11.120;2022-10-13T12:59:28;17.90;99.90
18218;DHT22;9234;49.344;11.120;2022-10-13T13:01:59;17.90;99.90
18218;DHT22;9234;49.344;11.120;2022-10-13T13:04:38;17.90;99.90
18218;DHT22;9234;49.344;11.120;2022-10-13T13:07:27;17.80;99.90
18218;DHT22;9234;49.344;11.120;2022-10-13T13:10:12;17.70;99.90
18218;DHT22;9234;49.344;11.120;2022-10-13T13:12:45;17.70;99.90
18218;DHT22;9234;49.344;11.120;2022-10-13T13:15:20;17.70;99.90
18218;DHT22;9234;49.344;11.120;2022-10-13T13:18:21;17.70;99.90
18218;DHT22;9234;49.344;11.120;2022-10-13T13:20:55;17.70;99.90
18218;DHT22;9234;49.344;11.120;2022-10-13T13:23:24;17.70;99.90
18218;DHT22;9234;49.344;11.120;2022-10-13T13:26:00;17.80;99.90
18218;DHT22;9234;49.344;11.120;2022-10-13T13:28:31;17.80;99.90
18218;DHT22;9234;49.344;11.120;2022-10-13T13:31:02;17.90;99.90
18218;DHT22;9234;49.344;11.120;2022-10-13T13:33:31;17.90;99.90
18218;DHT22;9234;49.344;11.120;2022-10-13T13:36:00;17.90;99.90
18218;DHT22;9234;49.344;11.120;2022-10-13T13:38:28;17.90;99.90
18218;DHT22;9234;49.344;11.120;2022-10-13T13:40:57;17.90;99.90
18218;DHT22;9234;49.344;11.120;2022-10-13T13:43:31;17.80;99.90
18218;DHT22;9234;49.344;11.120;2022-10-13T13:45:59;17.80;99.90
18218;DHT22;9234;49.344;11.120;2022-10-13T13:48:27;17.90;99.90
18218;DHT22;9234;49.344;11.120;2022-10-13T13:50:56;17.70;99.90
18218;DHT22;9234;49.344;11.120;2022-10-13T13:53:24;17.50;99.90
18218;DHT22;9234;49.344;11.120;2022-10-13T13:55:53;17.40;99.90
18218;DHT22;9234;49.344;11.120;2022-10-13T13:58:21;17.40;99.90
18218;DHT22;9234;49.344;11.120;2022-10-13T14:00:52;17.40;99.90
18218;DHT22;9234;49.344;11.120;2022-10-13T14:03:20;17.40;99.90
18218;DHT22;9234;49.344;11.120;2022-10-13T14:05:48;17.40;99.90
18218;DHT22;9234;49.344;11.120;2022-10-13T14:08:17;17.40;99.90
18218;DHT22;9234;49.344;11.120;2022-10-13T14:10:45;17.40;99.90
18218;DHT22;9234;49.344;11.120;2022-10-13T14:13:17;17.40;99.90
18218;DHT22;9234;49.344;11.120;2022-10-13T14:15:45;17.30;99.90
18218;DHT22;9234;49.344;11.120;2022-10-13T14:18:24;17.30;99.90
18218;DHT22;9234;49.344;11.120;2022-10-13T14:20:52;17.30;99.90
18218;DHT22;9234;49.344;11.120;2022-10-13T14:23:20;17.20;99.90
18218;DHT22;9234;49.344;11.120;2022-10-13T14:25:49;17.10;99.90
18218;DHT22;9234;49.344;11.120;2022-10-13T14:28:19;17.10;99.90
18218;DHT22;9234;49.344;11.120;2022-10-13T14:30:47;17.00;99.90
18218;DHT22;9234;49.344;11.120;2022-10-13T14:33:15;16.90;99.90
18218;DHT22;9234;49.344;11.120;2022-10-13T14:35:46;17.00;99.90
18218;DHT22;9234;49.344;11.120;2022-10-13T14:38:15;16.90;99.90
18218;DHT22;9234;49.344;11.120;2022-10-13T14:40:43;17.00;99.90
18218;DHT22;9234;49.344;11.120;2022-10-13T14:43:11;17.00;99.90
18218;DHT22;9234;49.344;11.120;2022-10-13T14:45:39;17.10;99.90
18218;DHT22;9234;49.344;11.120;2022-10-13T14:48:09;17.10;99.90
18218;DHT22;9234;49.344;11.120;2022-10-13T14:50:37;17.20;99.90
18218;DHT22;9234;49.344;11.120;2022-10-13T14:53:07;17.20;99.90
18218;DHT22;9234;49.344;11.120;2022-10-13T14:55:41;17.20;99.90
18218;DHT22;9234;49.344;11.120;2022-10-13T14:58:10;17.30;99.90
18218;DHT22;9234;49.344;11.120;2022-10-13T15:00:41;17.30;99.90
18218;DHT22;9234;49.344;11.120;2022-10-13T15:03:10;17.30;99.90
18218;DHT22;9234;49.344;11.120;2022-10-13T15:05:38;17.30;99.90
18218;DHT22;9234;49.344;11.120;2022-10-13T15:08:07;17.40;99.90
18218;DHT22;9234;49.344;11.120;2022-10-13T15:10:35;17.50;99.90
18218;DHT22;9234;49.344;11.120;2022-10-13T15:13:04;17.60;99.90
18218;DHT22;9234;49.344;11.120;2022-10-13T15:15:32;17.70;99.90
18218;DHT22;9234;49.344;11.120;2022-10-13T15:18:00;17.70;99.90
18218;DHT22;9234;49.344;11.120;2022-10-13T15:20:28;17.80;99.90
18218;DHT22;9234;49.344;11.120;2022-10-13T15:22:56;17.80;99.90
18218;DHT22;9234;49.344;11.120;2022-10-13T15:25:26;17.80;99.90
18218;DHT22;9234;49.344;11.120;2022-10-13T15:27:54;17.90;99.90
18218;DHT22;9234;49.344;11.120;2022-10-13T15:30:22;17.90;99.90
18218;DHT22;9234;49.344;11.120;2022-10-13T15:32:50;17.80;99.90
18218;DHT22;9234;49.344;11.120;2022-10-13T15:35:18;17.80;99.90
18218;DHT22;9234;49.344;11.120;2022-10-13T15:37:46;17.70;99.90
18218;DHT22;9234;49.344;11.120;2022-10-13T15:40:14;17.60;99.90
18218;DHT22;9234;49.344;11.120;2022-10-13T15:42:44;17.50;99.90
18218;DHT22;9234;49.344;11.120;2022-10-13T15:45:13;17.40;99.90
18218;DHT22;9234;49.344;11.120;2022-10-13T15:47:41;17.30;99.90
18218;DHT22;9234;49.344;11.120;2022-10-13T15:50:09;17.10;99.90
18218;DHT22;9234;49.344;11.120;2022-10-13T15:52:38;17.00;99.90
18218;DHT22;9234;49.344;11.120;2022-10-13T15:55:08;16.90;99.90
18218;DHT22;9234;49.344;11.120;2022-10-13T15:57:38;16.80;99.90
18218;DHT22;9234;49.344;11.120;2022-10-13T16:00:09;16.70;99.90
18218;DHT22;9234;49.344;11.120;2022-10-13T16:02:40;16.60;99.90
18218;DHT22;9234;49.344;11.120;2022-10-13T16:05:11;16.40;99.90
18218;DHT22;9234;49.344;11.120;2022-10-13T16:07:40;16.30;99.90
18218;DHT22;9234;49.344;11.120;2022-10-13T16:10:09;16.20;99.90
18218;DHT22;9234;49.344;11.120;2022-10-13T16:12:40;16.10;99.90
18218;DHT22;9234;49.344;11.120;2022-10-13T16:15:17;15.90;99.90
18218;DHT22;9234;49.344;11.120;2022-10-13T16:17:45;15.80;99.90
18218;DHT22;9234;49.344;11.120;2022-10-13T16:20:13;15.70;99.90
18218;DHT22;9234;49.344;11.120;2022-10-13T16:22:42;15.60;99.90
18218;DHT22;9234;49.344;11.120;2022-10-13T16:25:10;15.50;99.90
18218;DHT22;9234;49.344;11.120;2022-10-13T16:27:38;15.40;99.90